Pagrindinis puslapis
METAR-TAF:

METAR-TAF

Oro uostai :

Jizan, Saudo Arabija

platuma: 16-54N, ilguma: 042-35E, Aukštis: 6 m

Dabartinis oras

Ataskaita buvo paskelbta 41 minutes, ne 11:00 UTC
Vėjas 8 kt iš Pietvakarių
Temperatūra 31°C
Drėgmė 59%
Slėgis 1013 hPa
Matomumas 10 km arba daugiau
Mažai debesys ne aukštis 3000 ft

METAR: OEGN 061100Z 22008KT 9999 FEW030 31/22 Q1013 NOSIG

Laikas: 14:41 (11:41 UTC)

Prognozė

Ataskaita buvo paskelbta 41 minutes, ne 11:00 UTC
Prognozė galioja nuo 06 metu 12 UTC su 07 metu 18 UTC
Vėjas 10 kt iš Pietų/Pietvakarių
Matomumas 10 km arba daugiau
Mažai debesys ne aukštis 3000 ft
Tikimybė 30% :
Laikinai
nuo 06 metu 12 UTC su 06 metu 18 UTC
Mažai debesys ne aukštis 2500 ft, Liūtiniai kamuoliniai debesys.
Išsisklaidę debesys ne aukštis 3000 ft
Tapsmas
nuo 06 metu 20 UTC su 06 metu 22 UTC
Vėjas 8 kt iš Rytų

TAF: OEGN 061100Z 0612/0718 20010KT 9999 FEW030 PROB30 TEMPO 0612/0618 FEW025CB SCT030 BECMG 0620/0622 10008KT

Orai ataskaitas ir orų prognozės (METAR, TAF).

turimą stotys yra geltonos ir raudonos taškus žemėlapyje.

Perkelti pele per norėdami pamatyti stoties vardą.

Tada spustelėkite, norėdami matyti oro stebėjimo ir prognozės.

Norėdami pakeisti žemėlapį: spustelėkite ant žalios mygtukų su juodo kryžiaus žemyn,; žalią mygtuką su brūkšneliu, jei norite nutolinti; arba žalių rodyklių gretimoms žemėlapius.


METAR-TAF: